sensor_id;sensor_type;location;lat;lon;timestamp;P1;durP1;ratioP1;P2;durP2;ratioP2
2610;SDS011;5612;51.134;17.058;2023-07-02T00:00:49;9.27;;;8.47;;
2610;SDS011;5612;51.134;17.058;2023-07-02T00:03:18;11.40;;;10.23;;
2610;SDS011;5612;51.134;17.058;2023-07-02T00:05:50;10.27;;;9.27;;
2610;SDS011;5612;51.134;17.058;2023-07-02T00:08:21;8.97;;;8.17;;
2610;SDS011;5612;51.134;17.058;2023-07-02T00:10:50;8.53;;;7.87;;
2610;SDS011;5612;51.134;17.058;2023-07-02T00:13:19;8.33;;;7.63;;
2610;SDS011;5612;51.134;17.058;2023-07-02T00:15:48;9.13;;;8.23;;
2610;SDS011;5612;51.134;17.058;2023-07-02T00:18:17;8.67;;;7.97;;
2610;SDS011;5612;51.134;17.058;2023-07-02T00:20:46;9.30;;;8.50;;
2610;SDS011;5612;51.134;17.058;2023-07-02T00:23:17;8.60;;;7.90;;
2610;SDS011;5612;51.134;17.058;2023-07-02T00:25:46;8.03;;;7.23;;
2610;SDS011;5612;51.134;17.058;2023-07-02T00:28:15;8.90;;;8.20;;
2610;SDS011;5612;51.134;17.058;2023-07-02T00:30:44;7.70;;;7.10;;
2610;SDS011;5612;51.134;17.058;2023-07-02T00:33:14;8.40;;;7.80;;
2610;SDS011;5612;51.134;17.058;2023-07-02T00:35:45;8.87;;;8.17;;
2610;SDS011;5612;51.134;17.058;2023-07-02T00:38:14;7.40;;;6.67;;
2610;SDS011;5612;51.134;17.058;2023-07-02T00:40:44;8.90;;;6.10;;
2610;SDS011;5612;51.134;17.058;2023-07-02T00:43:13;7.67;;;6.87;;
2610;SDS011;5612;51.134;17.058;2023-07-02T00:45:42;5.97;;;5.33;;
2610;SDS011;5612;51.134;17.058;2023-07-02T00:48:12;5.30;;;4.80;;
2610;SDS011;5612;51.134;17.058;2023-07-02T00:50:41;5.53;;;5.03;;
2610;SDS011;5612;51.134;17.058;2023-07-02T00:53:10;5.47;;;4.97;;
2610;SDS011;5612;51.134;17.058;2023-07-02T00:55:38;5.20;;;4.70;;
2610;SDS011;5612;51.134;17.058;2023-07-02T00:58:09;4.33;;;3.67;;
2610;SDS011;5612;51.134;17.058;2023-07-02T01:00:38;3.50;;;3.20;;
2610;SDS011;5612;51.134;17.058;2023-07-02T01:03:07;4.33;;;3.93;;
2610;SDS011;5612;51.134;17.058;2023-07-02T01:05:35;3.30;;;3.10;;
2610;SDS011;5612;51.134;17.058;2023-07-02T01:08:04;3.83;;;3.53;;
2610;SDS011;5612;51.134;17.058;2023-07-02T01:10:34;3.30;;;3.10;;
2610;SDS011;5612;51.134;17.058;2023-07-02T01:13:04;4.30;;;3.23;;
2610;SDS011;5612;51.134;17.058;2023-07-02T01:15:39;3.40;;;3.10;;
2610;SDS011;5612;51.134;17.058;2023-07-02T01:18:08;3.77;;;2.40;;
2610;SDS011;5612;51.134;17.058;2023-07-02T01:20:38;2.93;;;2.63;;
2610;SDS011;5612;51.134;17.058;2023-07-02T01:23:07;4.90;;;3.43;;
2610;SDS011;5612;51.134;17.058;2023-07-02T01:25:36;3.27;;;2.97;;
2610;SDS011;5612;51.134;17.058;2023-07-02T01:28:05;2.50;;;2.30;;
2610;SDS011;5612;51.134;17.058;2023-07-02T01:30:34;3.77;;;2.77;;
2610;SDS011;5612;51.134;17.058;2023-07-02T01:33:06;3.33;;;2.70;;
2610;SDS011;5612;51.134;17.058;2023-07-02T01:35:35;3.50;;;2.50;;
2610;SDS011;5612;51.134;17.058;2023-07-02T01:38:05;4.00;;;2.60;;
2610;SDS011;5612;51.134;17.058;2023-07-02T01:40:34;4.03;;;2.77;;
2610;SDS011;5612;51.134;17.058;2023-07-02T01:43:03;3.90;;;2.53;;
2610;SDS011;5612;51.134;17.058;2023-07-02T01:45:32;3.00;;;2.50;;
2610;SDS011;5612;51.134;17.058;2023-07-02T01:48:01;2.53;;;2.10;;
2610;SDS011;5612;51.134;17.058;2023-07-02T01:50:30;2.73;;;2.10;;
2610;SDS011;5612;51.134;17.058;2023-07-02T01:52:58;2.17;;;2.07;;
2610;SDS011;5612;51.134;17.058;2023-07-02T01:55:29;2.43;;;2.33;;
2610;SDS011;5612;51.134;17.058;2023-07-02T01:57:57;3.00;;;2.70;;
2610;SDS011;5612;51.134;17.058;2023-07-02T02:00:26;4.90;;;2.37;;
2610;SDS011;5612;51.134;17.058;2023-07-02T02:02:55;3.77;;;3.47;;
2610;SDS011;5612;51.134;17.058;2023-07-02T02:05:24;3.30;;;2.73;;
2610;SDS011;5612;51.134;17.058;2023-07-02T02:07:53;4.80;;;2.40;;
2610;SDS011;5612;51.134;17.058;2023-07-02T02:10:22;3.70;;;3.40;;
2610;SDS011;5612;51.134;17.058;2023-07-02T02:12:52;2.63;;;2.40;;
2610;SDS011;5612;51.134;17.058;2023-07-02T02:15:21;3.10;;;2.60;;
2610;SDS011;5612;51.134;17.058;2023-07-02T02:17:50;2.60;;;2.30;;
2610;SDS011;5612;51.134;17.058;2023-07-02T02:20:19;2.43;;;2.33;;
2610;SDS011;5612;51.134;17.058;2023-07-02T02:22:48;4.50;;;2.50;;
2610;SDS011;5612;51.134;17.058;2023-07-02T02:25:16;4.10;;;2.30;;
2610;SDS011;5612;51.134;17.058;2023-07-02T02:27:45;2.53;;;2.33;;
2610;SDS011;5612;51.134;17.058;2023-07-02T02:30:16;2.20;;;2.10;;
2610;SDS011;5612;51.134;17.058;2023-07-02T02:32:44;2.10;;;1.90;;
2610;SDS011;5612;51.134;17.058;2023-07-02T02:35:13;2.17;;;2.03;;
2610;SDS011;5612;51.134;17.058;2023-07-02T02:37:42;2.20;;;2.00;;
2610;SDS011;5612;51.134;17.058;2023-07-02T02:40:12;2.37;;;2.27;;
2610;SDS011;5612;51.134;17.058;2023-07-02T02:42:41;1.80;;;1.70;;
2610;SDS011;5612;51.134;17.058;2023-07-02T02:45:09;1.87;;;1.77;;
2610;SDS011;5612;51.134;17.058;2023-07-02T02:47:40;1.83;;;1.67;;
2610;SDS011;5612;51.134;17.058;2023-07-02T02:50:09;3.20;;;1.97;;
2610;SDS011;5612;51.134;17.058;2023-07-02T02:52:41;3.87;;;2.30;;
2610;SDS011;5612;51.134;17.058;2023-07-02T02:55:11;1.77;;;1.67;;
2610;SDS011;5612;51.134;17.058;2023-07-02T02:57:40;1.77;;;1.67;;
2610;SDS011;5612;51.134;17.058;2023-07-02T03:00:10;1.93;;;1.70;;
2610;SDS011;5612;51.134;17.058;2023-07-02T03:02:41;2.63;;;2.43;;
2610;SDS011;5612;51.134;17.058;2023-07-02T03:05:10;1.90;;;1.53;;
2610;SDS011;5612;51.134;17.058;2023-07-02T03:07:39;2.03;;;1.57;;
2610;SDS011;5612;51.134;17.058;2023-07-02T03:10:08;1.67;;;1.57;;
2610;SDS011;5612;51.134;17.058;2023-07-02T03:12:37;2.07;;;1.60;;
2610;SDS011;5612;51.134;17.058;2023-07-02T03:15:06;2.63;;;1.67;;
2610;SDS011;5612;51.134;17.058;2023-07-02T03:17:36;2.40;;;1.90;;
2610;SDS011;5612;51.134;17.058;2023-07-02T03:20:07;2.00;;;1.60;;
2610;SDS011;5612;51.134;17.058;2023-07-02T03:22:36;1.30;;;1.30;;
2610;SDS011;5612;51.134;17.058;2023-07-02T03:25:05;1.70;;;1.47;;
2610;SDS011;5612;51.134;17.058;2023-07-02T03:27:35;1.70;;;1.50;;
2610;SDS011;5612;51.134;17.058;2023-07-02T03:30:04;1.50;;;1.40;;
2610;SDS011;5612;51.134;17.058;2023-07-02T03:32:34;1.77;;;1.70;;
2610;SDS011;5612;51.134;17.058;2023-07-02T03:35:03;3.00;;;1.43;;
2610;SDS011;5612;51.134;17.058;2023-07-02T03:37:34;1.30;;;1.20;;
2610;SDS011;5612;51.134;17.058;2023-07-02T03:40:03;1.50;;;1.40;;
2610;SDS011;5612;51.134;17.058;2023-07-02T03:42:33;1.30;;;1.30;;
2610;SDS011;5612;51.134;17.058;2023-07-02T03:45:02;2.27;;;1.50;;
2610;SDS011;5612;51.134;17.058;2023-07-02T03:47:32;1.93;;;1.47;;
2610;SDS011;5612;51.134;17.058;2023-07-02T03:50:01;2.67;;;1.47;;
2610;SDS011;5612;51.134;17.058;2023-07-02T03:52:30;1.90;;;1.80;;
2610;SDS011;5612;51.134;17.058;2023-07-02T03:55:00;1.73;;;1.63;;
2610;SDS011;5612;51.134;17.058;2023-07-02T03:57:29;1.80;;;1.70;;
2610;SDS011;5612;51.134;17.058;2023-07-02T03:59:58;1.83;;;1.73;;
2610;SDS011;5612;51.134;17.058;2023-07-02T04:02:27;1.57;;;1.47;;
2610;SDS011;5612;51.134;17.058;2023-07-02T04:04:56;2.07;;;1.90;;
2610;SDS011;5612;51.134;17.058;2023-07-02T04:07:25;1.60;;;1.50;;
2610;SDS011;5612;51.134;17.058;2023-07-02T04:09:53;2.00;;;1.80;;
2610;SDS011;5612;51.134;17.058;2023-07-02T04:12:24;1.90;;;1.80;;
2610;SDS011;5612;51.134;17.058;2023-07-02T04:14:52;1.73;;;1.60;;
2610;SDS011;5612;51.134;17.058;2023-07-02T04:17:21;1.70;;;1.60;;
2610;SDS011;5612;51.134;17.058;2023-07-02T04:19:53;1.87;;;1.77;;
2610;SDS011;5612;51.134;17.058;2023-07-02T04:22:23;1.37;;;1.30;;
2610;SDS011;5612;51.134;17.058;2023-07-02T04:24:51;2.07;;;1.97;;
2610;SDS011;5612;51.134;17.058;2023-07-02T04:27:30;2.07;;;1.73;;
2610;SDS011;5612;51.134;17.058;2023-07-02T04:30:16;2.00;;;1.90;;
2610;SDS011;5612;51.134;17.058;2023-07-02T04:32:45;3.00;;;1.90;;
2610;SDS011;5612;51.134;17.058;2023-07-02T04:35:14;2.00;;;1.90;;
2610;SDS011;5612;51.134;17.058;2023-07-02T04:37:43;1.80;;;1.70;;
2610;SDS011;5612;51.134;17.058;2023-07-02T04:40:12;2.23;;;2.13;;
2610;SDS011;5612;51.134;17.058;2023-07-02T04:42:42;2.03;;;1.93;;
2610;SDS011;5612;51.134;17.058;2023-07-02T04:45:14;1.80;;;1.70;;
2610;SDS011;5612;51.134;17.058;2023-07-02T04:47:44;2.00;;;1.90;;
2610;SDS011;5612;51.134;17.058;2023-07-02T04:50:13;2.40;;;2.20;;
2610;SDS011;5612;51.134;17.058;2023-07-02T04:52:42;3.63;;;2.20;;
2610;SDS011;5612;51.134;17.058;2023-07-02T04:55:11;3.50;;;2.10;;
2610;SDS011;5612;51.134;17.058;2023-07-02T04:57:41;2.40;;;2.00;;
2610;SDS011;5612;51.134;17.058;2023-07-02T05:00:11;2.87;;;2.10;;
2610;SDS011;5612;51.134;17.058;2023-07-02T05:02:41;2.37;;;2.20;;
2610;SDS011;5612;51.134;17.058;2023-07-02T05:05:10;4.03;;;2.53;;
2610;SDS011;5612;51.134;17.058;2023-07-02T05:07:39;2.40;;;2.20;;
2610;SDS011;5612;51.134;17.058;2023-07-02T05:10:09;1.87;;;1.73;;
2610;SDS011;5612;51.134;17.058;2023-07-02T05:12:38;2.60;;;2.40;;
2610;SDS011;5612;51.134;17.058;2023-07-02T05:15:09;2.67;;;2.47;;
2610;SDS011;5612;51.134;17.058;2023-07-02T05:17:38;1.97;;;1.87;;
2610;SDS011;5612;51.134;17.058;2023-07-02T05:20:08;2.00;;;1.90;;
2610;SDS011;5612;51.134;17.058;2023-07-02T05:22:37;3.80;;;2.43;;
2610;SDS011;5612;51.134;17.058;2023-07-02T05:25:07;2.40;;;2.23;;
2610;SDS011;5612;51.134;17.058;2023-07-02T05:27:36;2.33;;;2.20;;
2610;SDS011;5612;51.134;17.058;2023-07-02T05:30:06;2.40;;;2.30;;
2610;SDS011;5612;51.134;17.058;2023-07-02T05:32:37;2.13;;;2.03;;
2610;SDS011;5612;51.134;17.058;2023-07-02T05:35:07;3.20;;;2.30;;
2610;SDS011;5612;51.134;17.058;2023-07-02T05:37:36;2.27;;;2.07;;
2610;SDS011;5612;51.134;17.058;2023-07-02T05:40:06;2.33;;;2.23;;
2610;SDS011;5612;51.134;17.058;2023-07-02T05:42:35;2.87;;;2.50;;
2610;SDS011;5612;51.134;17.058;2023-07-02T05:45:04;2.97;;;2.77;;
2610;SDS011;5612;51.134;17.058;2023-07-02T05:47:35;2.50;;;2.40;;
2610;SDS011;5612;51.134;17.058;2023-07-02T05:50:05;2.67;;;2.47;;
2610;SDS011;5612;51.134;17.058;2023-07-02T05:52:35;2.90;;;2.60;;
2610;SDS011;5612;51.134;17.058;2023-07-02T05:55:05;3.57;;;2.57;;
2610;SDS011;5612;51.134;17.058;2023-07-02T05:57:37;2.30;;;2.20;;
2610;SDS011;5612;51.134;17.058;2023-07-02T06:00:06;2.53;;;2.30;;
2610;SDS011;5612;51.134;17.058;2023-07-02T06:02:37;2.53;;;2.33;;
2610;SDS011;5612;51.134;17.058;2023-07-02T06:05:07;2.73;;;2.63;;
2610;SDS011;5612;51.134;17.058;2023-07-02T06:07:36;2.60;;;2.40;;
2610;SDS011;5612;51.134;17.058;2023-07-02T06:10:06;3.33;;;2.83;;
2610;SDS011;5612;51.134;17.058;2023-07-02T06:12:35;2.73;;;2.20;;
2610;SDS011;5612;51.134;17.058;2023-07-02T06:15:05;2.67;;;2.30;;
2610;SDS011;5612;51.134;17.058;2023-07-02T06:17:35;2.73;;;2.53;;
2610;SDS011;5612;51.134;17.058;2023-07-02T06:20:06;3.20;;;2.80;;
2610;SDS011;5612;51.134;17.058;2023-07-02T06:22:36;4.07;;;2.80;;
2610;SDS011;5612;51.134;17.058;2023-07-02T06:25:05;2.67;;;2.47;;
2610;SDS011;5612;51.134;17.058;2023-07-02T06:27:34;2.60;;;2.40;;
2610;SDS011;5612;51.134;17.058;2023-07-02T06:30:04;2.97;;;2.77;;
2610;SDS011;5612;51.134;17.058;2023-07-02T06:32:34;2.37;;;2.27;;
2610;SDS011;5612;51.134;17.058;2023-07-02T06:35:03;2.17;;;2.07;;
2610;SDS011;5612;51.134;17.058;2023-07-02T06:37:34;2.70;;;2.37;;
2610;SDS011;5612;51.134;17.058;2023-07-02T06:40:04;2.70;;;2.50;;
2610;SDS011;5612;51.134;17.058;2023-07-02T06:42:34;3.00;;;2.80;;
2610;SDS011;5612;51.134;17.058;2023-07-02T06:45:04;4.60;;;3.13;;
2610;SDS011;5612;51.134;17.058;2023-07-02T06:47:33;2.30;;;2.20;;
2610;SDS011;5612;51.134;17.058;2023-07-02T06:50:02;2.73;;;2.53;;
2610;SDS011;5612;51.134;17.058;2023-07-02T06:52:32;2.00;;;1.90;;
2610;SDS011;5612;51.134;17.058;2023-07-02T06:55:02;2.13;;;2.03;;
2610;SDS011;5612;51.134;17.058;2023-07-02T06:57:32;2.50;;;2.30;;
2610;SDS011;5612;51.134;17.058;2023-07-02T07:00:01;2.20;;;2.10;;
2610;SDS011;5612;51.134;17.058;2023-07-02T07:02:31;2.33;;;2.23;;
2610;SDS011;5612;51.134;17.058;2023-07-02T07:05:00;2.50;;;2.40;;
2610;SDS011;5612;51.134;17.058;2023-07-02T07:07:30;3.20;;;3.00;;
2610;SDS011;5612;51.134;17.058;2023-07-02T07:10:00;2.97;;;2.77;;
2610;SDS011;5612;51.134;17.058;2023-07-02T07:12:30;2.93;;;2.77;;
2610;SDS011;5612;51.134;17.058;2023-07-02T07:15:00;2.83;;;2.63;;
2610;SDS011;5612;51.134;17.058;2023-07-02T07:17:29;3.60;;;3.30;;
2610;SDS011;5612;51.134;17.058;2023-07-02T07:19:58;3.87;;;3.10;;
2610;SDS011;5612;51.134;17.058;2023-07-02T07:22:29;2.40;;;2.27;;
2610;SDS011;5612;51.134;17.058;2023-07-02T07:24:57;2.97;;;2.67;;
2610;SDS011;5612;51.134;17.058;2023-07-02T07:27:28;2.63;;;2.53;;
2610;SDS011;5612;51.134;17.058;2023-07-02T07:29:56;3.10;;;3.00;;
2610;SDS011;5612;51.134;17.058;2023-07-02T07:32:25;2.70;;;2.60;;
2610;SDS011;5612;51.134;17.058;2023-07-02T07:34:55;2.80;;;2.70;;
2610;SDS011;5612;51.134;17.058;2023-07-02T07:37:24;2.50;;;2.40;;
2610;SDS011;5612;51.134;17.058;2023-07-02T07:39:53;4.53;;;2.93;;
2610;SDS011;5612;51.134;17.058;2023-07-02T07:42:22;4.17;;;2.43;;
2610;SDS011;5612;51.134;17.058;2023-07-02T07:44:52;2.30;;;2.20;;
2610;SDS011;5612;51.134;17.058;2023-07-02T07:47:21;2.60;;;2.40;;
2610;SDS011;5612;51.134;17.058;2023-07-02T07:49:50;3.00;;;2.90;;
2610;SDS011;5612;51.134;17.058;2023-07-02T07:52:19;2.80;;;2.70;;
2610;SDS011;5612;51.134;17.058;2023-07-02T07:54:48;2.50;;;2.40;;
2610;SDS011;5612;51.134;17.058;2023-07-02T07:57:16;3.03;;;2.73;;
2610;SDS011;5612;51.134;17.058;2023-07-02T07:59:45;2.83;;;2.73;;
2610;SDS011;5612;51.134;17.058;2023-07-02T08:02:15;3.37;;;3.17;;
2610;SDS011;5612;51.134;17.058;2023-07-02T08:04:45;2.90;;;2.70;;
2610;SDS011;5612;51.134;17.058;2023-07-02T08:07:14;3.07;;;2.87;;
2610;SDS011;5612;51.134;17.058;2023-07-02T08:09:43;2.80;;;2.70;;
2610;SDS011;5612;51.134;17.058;2023-07-02T08:12:11;3.10;;;2.80;;
2610;SDS011;5612;51.134;17.058;2023-07-02T08:14:40;2.43;;;2.33;;
2610;SDS011;5612;51.134;17.058;2023-07-02T08:17:09;2.47;;;2.37;;
2610;SDS011;5612;51.134;17.058;2023-07-02T08:19:40;2.60;;;2.50;;
2610;SDS011;5612;51.134;17.058;2023-07-02T08:22:08;2.63;;;2.43;;
2610;SDS011;5612;51.134;17.058;2023-07-02T08:24:37;2.27;;;2.17;;
2610;SDS011;5612;51.134;17.058;2023-07-02T08:27:09;2.20;;;2.10;;
2610;SDS011;5612;51.134;17.058;2023-07-02T08:29:40;2.50;;;2.40;;
2610;SDS011;5612;51.134;17.058;2023-07-02T08:32:11;3.03;;;2.87;;
2610;SDS011;5612;51.134;17.058;2023-07-02T08:34:42;2.70;;;2.60;;
2610;SDS011;5612;51.134;17.058;2023-07-02T08:37:11;2.67;;;2.57;;
2610;SDS011;5612;51.134;17.058;2023-07-02T08:39:40;2.93;;;2.73;;
2610;SDS011;5612;51.134;17.058;2023-07-02T08:42:08;2.63;;;2.43;;
2610;SDS011;5612;51.134;17.058;2023-07-02T08:44:37;3.17;;;2.90;;
2610;SDS011;5612;51.134;17.058;2023-07-02T08:47:06;3.03;;;2.83;;
2610;SDS011;5612;51.134;17.058;2023-07-02T08:49:36;3.37;;;3.17;;
2610;SDS011;5612;51.134;17.058;2023-07-02T08:52:07;3.57;;;3.37;;
2610;SDS011;5612;51.134;17.058;2023-07-02T08:54:36;3.60;;;3.40;;
2610;SDS011;5612;51.134;17.058;2023-07-02T08:57:05;3.60;;;3.30;;
2610;SDS011;5612;51.134;17.058;2023-07-02T08:59:35;3.30;;;3.10;;
2610;SDS011;5612;51.134;17.058;2023-07-02T09:02:04;3.67;;;3.37;;
2610;SDS011;5612;51.134;17.058;2023-07-02T09:04:34;3.30;;;3.20;;
2610;SDS011;5612;51.134;17.058;2023-07-02T09:07:03;3.60;;;3.40;;
2610;SDS011;5612;51.134;17.058;2023-07-02T09:09:43;4.23;;;3.40;;
2610;SDS011;5612;51.134;17.058;2023-07-02T09:12:22;3.50;;;3.30;;
2610;SDS011;5612;51.134;17.058;2023-07-02T09:14:56;3.43;;;2.97;;
2610;SDS011;5612;51.134;17.058;2023-07-02T09:17:29;3.53;;;3.23;;
2610;SDS011;5612;51.134;17.058;2023-07-02T09:19:59;3.30;;;3.07;;
2610;SDS011;5612;51.134;17.058;2023-07-02T09:22:29;3.27;;;3.13;;
2610;SDS011;5612;51.134;17.058;2023-07-02T09:25:00;3.50;;;3.30;;
2610;SDS011;5612;51.134;17.058;2023-07-02T09:27:33;3.57;;;3.37;;
2610;SDS011;5612;51.134;17.058;2023-07-02T09:30:09;3.50;;;3.10;;
2610;SDS011;5612;51.134;17.058;2023-07-02T09:32:40;4.47;;;2.80;;
2610;SDS011;5612;51.134;17.058;2023-07-02T09:35:10;3.17;;;3.07;;
2610;SDS011;5612;51.134;17.058;2023-07-02T09:37:40;4.33;;;3.10;;
2610;SDS011;5612;51.134;17.058;2023-07-02T09:40:12;3.13;;;2.90;;
2610;SDS011;5612;51.134;17.058;2023-07-02T09:42:43;5.07;;;2.57;;
2610;SDS011;5612;51.134;17.058;2023-07-02T09:45:19;3.70;;;3.37;;
2610;SDS011;5612;51.134;17.058;2023-07-02T09:47:51;3.60;;;3.27;;
2610;SDS011;5612;51.134;17.058;2023-07-02T09:50:24;3.10;;;2.80;;
2610;SDS011;5612;51.134;17.058;2023-07-02T09:52:56;2.93;;;2.77;;
2610;SDS011;5612;51.134;17.058;2023-07-02T09:55:26;3.03;;;2.93;;
2610;SDS011;5612;51.134;17.058;2023-07-02T09:57:55;3.03;;;2.83;;
2610;SDS011;5612;51.134;17.058;2023-07-02T10:00:25;3.10;;;2.90;;
2610;SDS011;5612;51.134;17.058;2023-07-02T10:02:54;3.30;;;3.10;;
2610;SDS011;5612;51.134;17.058;2023-07-02T10:05:27;2.87;;;2.67;;
2610;SDS011;5612;51.134;17.058;2023-07-02T10:07:56;3.10;;;2.87;;
2610;SDS011;5612;51.134;17.058;2023-07-02T10:10:28;3.00;;;2.80;;
2610;SDS011;5612;51.134;17.058;2023-07-02T10:12:58;3.30;;;3.10;;
2610;SDS011;5612;51.134;17.058;2023-07-02T10:15:27;3.00;;;2.90;;
2610;SDS011;5612;51.134;17.058;2023-07-02T10:18:01;2.60;;;2.50;;
2610;SDS011;5612;51.134;17.058;2023-07-02T10:20:31;3.23;;;3.00;;
2610;SDS011;5612;51.134;17.058;2023-07-02T10:23:02;3.40;;;3.20;;
2610;SDS011;5612;51.134;17.058;2023-07-02T10:25:33;2.67;;;2.53;;
2610;SDS011;5612;51.134;17.058;2023-07-02T10:28:13;3.07;;;2.87;;
2610;SDS011;5612;51.134;17.058;2023-07-02T10:30:43;2.43;;;2.33;;
2610;SDS011;5612;51.134;17.058;2023-07-02T10:33:13;2.63;;;2.53;;
2610;SDS011;5612;51.134;17.058;2023-07-02T10:35:43;3.70;;;2.60;;
2610;SDS011;5612;51.134;17.058;2023-07-02T10:38:17;2.43;;;2.33;;
2610;SDS011;5612;51.134;17.058;2023-07-02T10:40:53;2.43;;;2.33;;
2610;SDS011;5612;51.134;17.058;2023-07-02T10:43:25;2.97;;;2.83;;
2610;SDS011;5612;51.134;17.058;2023-07-02T10:45:57;2.73;;;2.63;;
2610;SDS011;5612;51.134;17.058;2023-07-02T10:48:28;3.00;;;2.80;;
2610;SDS011;5612;51.134;17.058;2023-07-02T10:50:57;2.27;;;2.17;;
2610;SDS011;5612;51.134;17.058;2023-07-02T10:53:26;2.73;;;2.60;;
2610;SDS011;5612;51.134;17.058;2023-07-02T10:55:57;2.80;;;2.53;;
2610;SDS011;5612;51.134;17.058;2023-07-02T10:58:26;2.20;;;2.10;;
2610;SDS011;5612;51.134;17.058;2023-07-02T11:00:55;3.30;;;2.10;;
2610;SDS011;5612;51.134;17.058;2023-07-02T11:03:25;2.20;;;2.10;;
2610;SDS011;5612;51.134;17.058;2023-07-02T11:05:55;2.13;;;1.93;;
2610;SDS011;5612;51.134;17.058;2023-07-02T11:08:24;2.27;;;2.07;;
2610;SDS011;5612;51.134;17.058;2023-07-02T11:11:06;2.00;;;1.90;;
2610;SDS011;5612;51.134;17.058;2023-07-02T11:13:43;1.63;;;1.50;;
2610;SDS011;5612;51.134;17.058;2023-07-02T11:16:17;1.53;;;1.43;;
2610;SDS011;5612;51.134;17.058;2023-07-02T11:18:53;1.70;;;1.60;;
2610;SDS011;5612;51.134;17.058;2023-07-02T11:21:22;1.58;;;1.55;;
2610;SDS011;5612;51.134;17.058;2023-07-02T11:24:00;1.65;;;1.60;;
2610;SDS011;5612;51.134;17.058;2023-07-02T11:26:38;2.42;;;1.67;;
2610;SDS011;5612;51.134;17.058;2023-07-02T11:29:10;1.65;;;1.55;;
2610;SDS011;5612;51.134;17.058;2023-07-02T11:31:39;1.83;;;1.73;;
2610;SDS011;5612;51.134;17.058;2023-07-02T11:34:12;1.67;;;1.67;;
2610;SDS011;5612;51.134;17.058;2023-07-02T11:36:44;1.70;;;1.70;;
2610;SDS011;5612;51.134;17.058;2023-07-02T11:39:13;2.05;;;1.90;;
2610;SDS011;5612;51.134;17.058;2023-07-02T11:41:45;1.60;;;1.60;;
2610;SDS011;5612;51.134;17.058;2023-07-02T11:44:17;1.98;;;1.88;;
2610;SDS011;5612;51.134;17.058;2023-07-02T11:46:46;1.50;;;1.40;;
2610;SDS011;5612;51.134;17.058;2023-07-02T11:49:15;2.20;;;2.00;;
2610;SDS011;5612;51.134;17.058;2023-07-02T11:51:44;1.70;;;1.60;;
2610;SDS011;5612;51.134;17.058;2023-07-02T11:54:16;2.20;;;2.10;;
2610;SDS011;5612;51.134;17.058;2023-07-02T11:56:47;2.33;;;2.23;;
2610;SDS011;5612;51.134;17.058;2023-07-02T11:59:16;2.23;;;2.13;;
2610;SDS011;5612;51.134;17.058;2023-07-02T12:01:45;2.10;;;2.00;;
2610;SDS011;5612;51.134;17.058;2023-07-02T12:04:14;1.43;;;1.43;;
2610;SDS011;5612;51.134;17.058;2023-07-02T12:06:44;2.20;;;2.00;;
2610;SDS011;5612;51.134;17.058;2023-07-02T12:09:13;2.30;;;2.17;;
2610;SDS011;5612;51.134;17.058;2023-07-02T12:11:42;2.10;;;2.00;;
2610;SDS011;5612;51.134;17.058;2023-07-02T12:14:13;1.60;;;1.50;;
2610;SDS011;5612;51.134;17.058;2023-07-02T12:16:42;2.10;;;2.03;;
2610;SDS011;5612;51.134;17.058;2023-07-02T12:19:11;2.73;;;2.53;;
2610;SDS011;5612;51.134;17.058;2023-07-02T12:21:40;4.77;;;2.20;;
2610;SDS011;5612;51.134;17.058;2023-07-02T12:24:10;2.60;;;2.10;;
2610;SDS011;5612;51.134;17.058;2023-07-02T12:26:39;2.53;;;1.87;;
2610;SDS011;5612;51.134;17.058;2023-07-02T12:29:08;2.10;;;2.00;;
2610;SDS011;5612;51.134;17.058;2023-07-02T12:31:39;1.90;;;1.80;;
2610;SDS011;5612;51.134;17.058;2023-07-02T12:34:08;1.58;;;1.58;;
2610;SDS011;5612;51.134;17.058;2023-07-02T12:36:37;2.65;;;1.85;;
2610;SDS011;5612;51.134;17.058;2023-07-02T12:39:06;2.27;;;1.80;;
2610;SDS011;5612;51.134;17.058;2023-07-02T12:41:35;3.30;;;1.77;;
2610;SDS011;5612;51.134;17.058;2023-07-02T12:44:04;2.20;;;2.10;;
2610;SDS011;5612;51.134;17.058;2023-07-02T12:46:33;2.27;;;2.17;;
2610;SDS011;5612;51.134;17.058;2023-07-02T12:49:03;2.30;;;1.80;;
2610;SDS011;5612;51.134;17.058;2023-07-02T12:51:32;2.10;;;2.00;;
2610;SDS011;5612;51.134;17.058;2023-07-02T12:54:01;2.10;;;1.90;;
2610;SDS011;5612;51.134;17.058;2023-07-02T12:56:30;3.30;;;1.63;;
2610;SDS011;5612;51.134;17.058;2023-07-02T12:58:59;2.50;;;2.07;;
2610;SDS011;5612;51.134;17.058;2023-07-02T13:01:30;1.87;;;1.77;;
2610;SDS011;5612;51.134;17.058;2023-07-02T13:03:59;1.77;;;1.67;;
2610;SDS011;5612;51.134;17.058;2023-07-02T13:06:32;2.30;;;2.20;;
2610;SDS011;5612;51.134;17.058;2023-07-02T13:09:07;2.20;;;2.10;;
2610;SDS011;5612;51.134;17.058;2023-07-02T13:11:37;1.87;;;1.77;;
2610;SDS011;5612;51.134;17.058;2023-07-02T13:14:07;2.57;;;2.33;;
2610;SDS011;5612;51.134;17.058;2023-07-02T13:16:37;3.83;;;2.07;;
2610;SDS011;5612;51.134;17.058;2023-07-02T13:19:09;2.90;;;2.23;;
2610;SDS011;5612;51.134;17.058;2023-07-02T13:21:38;1.80;;;1.70;;
2610;SDS011;5612;51.134;17.058;2023-07-02T13:24:08;1.70;;;1.57;;
2610;SDS011;5612;51.134;17.058;2023-07-02T13:26:38;1.77;;;1.67;;
2610;SDS011;5612;51.134;17.058;2023-07-02T13:29:14;1.60;;;1.60;;
2610;SDS011;5612;51.134;17.058;2023-07-02T13:31:43;1.90;;;1.80;;
2610;SDS011;5612;51.134;17.058;2023-07-02T13:34:15;2.03;;;1.93;;
2610;SDS011;5612;51.134;17.058;2023-07-02T13:36:45;2.40;;;1.80;;
2610;SDS011;5612;51.134;17.058;2023-07-02T13:39:14;2.60;;;2.07;;
2610;SDS011;5612;51.134;17.058;2023-07-02T13:41:43;2.50;;;2.40;;
2610;SDS011;5612;51.134;17.058;2023-07-02T13:44:13;2.10;;;1.90;;
2610;SDS011;5612;51.134;17.058;2023-07-02T13:46:45;6.10;;;2.30;;
2610;SDS011;5612;51.134;17.058;2023-07-02T13:49:17;4.37;;;2.20;;
2610;SDS011;5612;51.134;17.058;2023-07-02T13:51:48;3.60;;;2.20;;
2610;SDS011;5612;51.134;17.058;2023-07-02T13:54:18;6.07;;;2.63;;
2610;SDS011;5612;51.134;17.058;2023-07-02T13:56:47;3.07;;;2.60;;
2610;SDS011;5612;51.134;17.058;2023-07-02T13:59:19;1.87;;;1.77;;
2610;SDS011;5612;51.134;17.058;2023-07-02T14:01:48;2.40;;;1.70;;
2610;SDS011;5612;51.134;17.058;2023-07-02T14:04:18;2.07;;;1.97;;
2610;SDS011;5612;51.134;17.058;2023-07-02T14:06:48;2.53;;;2.10;;
2610;SDS011;5612;51.134;17.058;2023-07-02T14:09:18;1.87;;;1.77;;
2610;SDS011;5612;51.134;17.058;2023-07-02T14:11:47;1.93;;;1.83;;
2610;SDS011;5612;51.134;17.058;2023-07-02T14:14:17;2.20;;;1.67;;
2610;SDS011;5612;51.134;17.058;2023-07-02T14:16:48;3.73;;;2.20;;
2610;SDS011;5612;51.134;17.058;2023-07-02T14:19:18;2.13;;;2.03;;
2610;SDS011;5612;51.134;17.058;2023-07-02T14:21:47;2.40;;;2.10;;
2610;SDS011;5612;51.134;17.058;2023-07-02T14:24:17;2.00;;;1.90;;
2610;SDS011;5612;51.134;17.058;2023-07-02T14:26:47;4.13;;;2.13;;
2610;SDS011;5612;51.134;17.058;2023-07-02T14:29:17;1.90;;;1.80;;
2610;SDS011;5612;51.134;17.058;2023-07-02T14:31:50;2.40;;;2.20;;
2610;SDS011;5612;51.134;17.058;2023-07-02T14:34:20;3.00;;;2.80;;
2610;SDS011;5612;51.134;17.058;2023-07-02T14:36:50;2.07;;;1.97;;
2610;SDS011;5612;51.134;17.058;2023-07-02T14:39:20;2.00;;;1.90;;
2610;SDS011;5612;51.134;17.058;2023-07-02T14:41:50;4.60;;;1.90;;
2610;SDS011;5612;51.134;17.058;2023-07-02T14:44:22;2.03;;;1.87;;
2610;SDS011;5612;51.134;17.058;2023-07-02T14:46:51;2.30;;;2.10;;
2610;SDS011;5612;51.134;17.058;2023-07-02T14:49:21;2.23;;;2.03;;
2610;SDS011;5612;51.134;17.058;2023-07-02T14:51:50;2.10;;;2.00;;
2610;SDS011;5612;51.134;17.058;2023-07-02T14:54:19;2.43;;;2.33;;
2610;SDS011;5612;51.134;17.058;2023-07-02T14:56:48;1.77;;;1.77;;
2610;SDS011;5612;51.134;17.058;2023-07-02T14:59:17;3.70;;;2.20;;
2610;SDS011;5612;51.134;17.058;2023-07-02T15:01:48;2.43;;;2.23;;
2610;SDS011;5612;51.134;17.058;2023-07-02T15:04:17;1.87;;;1.77;;
2610;SDS011;5612;51.134;17.058;2023-07-02T15:06:47;2.50;;;2.30;;
2610;SDS011;5612;51.134;17.058;2023-07-02T15:09:16;2.03;;;1.93;;
2610;SDS011;5612;51.134;17.058;2023-07-02T15:11:45;2.83;;;2.63;;
2610;SDS011;5612;51.134;17.058;2023-07-02T15:14:14;2.60;;;2.40;;
2610;SDS011;5612;51.134;17.058;2023-07-02T15:16:43;3.50;;;2.17;;